sensor_id;sensor_type;location;lat;lon;timestamp;pressure;altitude;pressure_sealevel;temperature;humidity
11413;BME280;5762;43.256;26.960;2023-07-31T00:00:02;98912.55;;;19.90;100.00
11413;BME280;5762;43.256;26.960;2023-07-31T00:02:30;98911.39;;;19.91;100.00
11413;BME280;5762;43.256;26.960;2023-07-31T00:04:58;98911.94;;;19.87;100.00
11413;BME280;5762;43.256;26.960;2023-07-31T00:07:27;98910.51;;;19.80;100.00
11413;BME280;5762;43.256;26.960;2023-07-31T00:09:55;98915.03;;;19.82;100.00
11413;BME280;5762;43.256;26.960;2023-07-31T00:12:23;98918.37;;;19.81;100.00
11413;BME280;5762;43.256;26.960;2023-07-31T00:14:53;98926.46;;;19.87;100.00
11413;BME280;5762;43.256;26.960;2023-07-31T00:17:21;98940.02;;;19.90;100.00
11413;BME280;5762;43.256;26.960;2023-07-31T00:19:50;98947.88;;;19.91;100.00
11413;BME280;5762;43.256;26.960;2023-07-31T00:22:19;98954.19;;;19.95;100.00
11413;BME280;5762;43.256;26.960;2023-07-31T00:24:48;98936.92;;;19.95;100.00
11413;BME280;5762;43.256;26.960;2023-07-31T00:27:17;98924.95;;;19.93;100.00
11413;BME280;5762;43.256;26.960;2023-07-31T00:29:45;98930.91;;;20.02;100.00
11413;BME280;5762;43.256;26.960;2023-07-31T00:32:14;98924.69;;;20.13;100.00
11413;BME280;5762;43.256;26.960;2023-07-31T00:34:43;98928.18;;;20.33;100.00
11413;BME280;5762;43.256;26.960;2023-07-31T00:37:12;98903.34;;;20.43;100.00
11413;BME280;5762;43.256;26.960;2023-07-31T00:39:41;98845.85;;;20.55;100.00
11413;BME280;5762;43.256;26.960;2023-07-31T00:42:10;98861.34;;;20.50;100.00
11413;BME280;5762;43.256;26.960;2023-07-31T00:44:39;98878.64;;;20.54;100.00
11413;BME280;5762;43.256;26.960;2023-07-31T00:47:08;98859.61;;;20.58;100.00
11413;BME280;5762;43.256;26.960;2023-07-31T00:49:37;98848.85;;;20.66;100.00
11413;BME280;5762;43.256;26.960;2023-07-31T00:52:06;98848.09;;;20.73;100.00
11413;BME280;5762;43.256;26.960;2023-07-31T00:54:35;98850.64;;;20.72;100.00
11413;BME280;5762;43.256;26.960;2023-07-31T00:57:04;98842.75;;;20.63;100.00
11413;BME280;5762;43.256;26.960;2023-07-31T00:59:32;98841.93;;;20.56;100.00
11413;BME280;5762;43.256;26.960;2023-07-31T01:02:01;98839.36;;;20.53;100.00
11413;BME280;5762;43.256;26.960;2023-07-31T01:04:29;98843.88;;;20.52;100.00
11413;BME280;5762;43.256;26.960;2023-07-31T01:09:37;98839.53;;;20.47;100.00
11413;BME280;5762;43.256;26.960;2023-07-31T01:12:06;98835.59;;;20.41;100.00
11413;BME280;5762;43.256;26.960;2023-07-31T01:14:35;98832.59;;;20.36;100.00
11413;BME280;5762;43.256;26.960;2023-07-31T01:17:04;98849.47;;;20.35;100.00
11413;BME280;5762;43.256;26.960;2023-07-31T01:19:33;98850.84;;;20.35;100.00
11413;BME280;5762;43.256;26.960;2023-07-31T01:27:06;98857.90;;;20.32;100.00
11413;BME280;5762;43.256;26.960;2023-07-31T01:32:03;98869.02;;;20.23;100.00
11413;BME280;5762;43.256;26.960;2023-07-31T01:34:33;98864.50;;;20.21;100.00
11413;BME280;5762;43.256;26.960;2023-07-31T01:37:03;98877.04;;;20.18;100.00
11413;BME280;5762;43.256;26.960;2023-07-31T01:39:32;98887.19;;;20.11;100.00
11413;BME280;5762;43.256;26.960;2023-07-31T01:42:01;98891.67;;;20.02;100.00
11413;BME280;5762;43.256;26.960;2023-07-31T01:44:29;98883.38;;;19.95;100.00
11413;BME280;5762;43.256;26.960;2023-07-31T01:46:59;98890.33;;;19.82;100.00
11413;BME280;5762;43.256;26.960;2023-07-31T01:49:27;98899.91;;;19.74;100.00
11413;BME280;5762;43.256;26.960;2023-07-31T01:51:56;98902.20;;;19.69;100.00
11413;BME280;5762;43.256;26.960;2023-07-31T01:54:25;98903.03;;;19.53;100.00
11413;BME280;5762;43.256;26.960;2023-07-31T01:56:53;98902.92;;;19.46;100.00
11413;BME280;5762;43.256;26.960;2023-07-31T01:59:22;98895.27;;;19.45;100.00
11413;BME280;5762;43.256;26.960;2023-07-31T02:01:51;98897.11;;;19.30;100.00
11413;BME280;5762;43.256;26.960;2023-07-31T02:04:20;98902.59;;;19.30;100.00
11413;BME280;5762;43.256;26.960;2023-07-31T02:06:48;98901.05;;;19.33;100.00
11413;BME280;5762;43.256;26.960;2023-07-31T02:09:17;98895.12;;;19.27;100.00
11413;BME280;5762;43.256;26.960;2023-07-31T02:11:45;98899.23;;;19.27;100.00
11413;BME280;5762;43.256;26.960;2023-07-31T02:14:14;98899.89;;;19.34;100.00
11413;BME280;5762;43.256;26.960;2023-07-31T02:16:43;98901.72;;;19.39;100.00
11413;BME280;5762;43.256;26.960;2023-07-31T02:19:12;98901.13;;;19.40;100.00
11413;BME280;5762;43.256;26.960;2023-07-31T02:21:41;98902.30;;;19.42;100.00
11413;BME280;5762;43.256;26.960;2023-07-31T02:24:10;98909.30;;;19.53;100.00
11413;BME280;5762;43.256;26.960;2023-07-31T02:26:39;98911.94;;;19.46;100.00
11413;BME280;5762;43.256;26.960;2023-07-31T02:29:08;98912.73;;;19.47;100.00
11413;BME280;5762;43.256;26.960;2023-07-31T02:31:36;98911.05;;;19.52;100.00
11413;BME280;5762;43.256;26.960;2023-07-31T02:34:05;98910.95;;;19.61;100.00
11413;BME280;5762;43.256;26.960;2023-07-31T02:36:34;98907.00;;;19.59;100.00
11413;BME280;5762;43.256;26.960;2023-07-31T02:39:05;98911.91;;;19.59;100.00
11413;BME280;5762;43.256;26.960;2023-07-31T02:41:34;98907.22;;;19.60;100.00
11413;BME280;5762;43.256;26.960;2023-07-31T02:44:02;98909.00;;;19.62;100.00
11413;BME280;5762;43.256;26.960;2023-07-31T02:46:31;98908.75;;;19.57;100.00
11413;BME280;5762;43.256;26.960;2023-07-31T02:49:00;98905.02;;;19.56;100.00
11413;BME280;5762;43.256;26.960;2023-07-31T02:51:29;98908.79;;;19.61;100.00
11413;BME280;5762;43.256;26.960;2023-07-31T02:53:58;98906.25;;;19.62;100.00
11413;BME280;5762;43.256;26.960;2023-07-31T02:56:27;98905.22;;;19.57;100.00
11413;BME280;5762;43.256;26.960;2023-07-31T02:58:55;98904.81;;;19.55;100.00
11413;BME280;5762;43.256;26.960;2023-07-31T03:01:24;98886.45;;;19.46;100.00
11413;BME280;5762;43.256;26.960;2023-07-31T03:03:53;98901.27;;;19.34;100.00
11413;BME280;5762;43.256;26.960;2023-07-31T03:06:22;98902.97;;;19.29;100.00
11413;BME280;5762;43.256;26.960;2023-07-31T03:08:51;98908.12;;;19.17;100.00
11413;BME280;5762;43.256;26.960;2023-07-31T03:11:20;98916.06;;;19.09;100.00
11413;BME280;5762;43.256;26.960;2023-07-31T03:13:49;98621.02;;;17.06;100.00
11413;BME280;5762;43.256;26.960;2023-07-31T03:16:17;98915.72;;;18.94;100.00
11413;BME280;5762;43.256;26.960;2023-07-31T03:18:46;98904.17;;;18.94;100.00
11413;BME280;5762;43.256;26.960;2023-07-31T03:21:15;98906.77;;;18.84;100.00
11413;BME280;5762;43.256;26.960;2023-07-31T03:23:43;98903.03;;;18.82;100.00
11413;BME280;5762;43.256;26.960;2023-07-31T03:26:11;98914.67;;;18.89;100.00
11413;BME280;5762;43.256;26.960;2023-07-31T03:28:41;98906.66;;;18.90;100.00
11413;BME280;5762;43.256;26.960;2023-07-31T03:31:10;98918.78;;;18.89;100.00
11413;BME280;5762;43.256;26.960;2023-07-31T03:33:38;98920.16;;;18.89;100.00
11413;BME280;5762;43.256;26.960;2023-07-31T03:36:07;98913.72;;;18.91;100.00
11413;BME280;5762;43.256;26.960;2023-07-31T03:38:36;98926.55;;;18.83;100.00
11413;BME280;5762;43.256;26.960;2023-07-31T03:41:04;98922.39;;;18.80;100.00
11413;BME280;5762;43.256;26.960;2023-07-31T03:43:33;98921.48;;;18.68;100.00
11413;BME280;5762;43.256;26.960;2023-07-31T03:46:02;98927.28;;;18.63;100.00
11413;BME280;5762;43.256;26.960;2023-07-31T03:48:31;98931.89;;;18.59;100.00
11413;BME280;5762;43.256;26.960;2023-07-31T03:51:00;98944.59;;;18.58;100.00
11413;BME280;5762;43.256;26.960;2023-07-31T03:53:29;98955.14;;;18.56;100.00
11413;BME280;5762;43.256;26.960;2023-07-31T03:55:58;98962.41;;;18.58;100.00
11413;BME280;5762;43.256;26.960;2023-07-31T03:58:26;98970.37;;;18.53;100.00
11413;BME280;5762;43.256;26.960;2023-07-31T04:00:55;98971.05;;;18.47;100.00
11413;BME280;5762;43.256;26.960;2023-07-31T04:03:24;98978.79;;;18.41;100.00
11413;BME280;5762;43.256;26.960;2023-07-31T04:05:54;98979.95;;;18.40;100.00
11413;BME280;5762;43.256;26.960;2023-07-31T04:08:25;98988.22;;;18.43;100.00
11413;BME280;5762;43.256;26.960;2023-07-31T04:10:54;99002.41;;;18.49;100.00
11413;BME280;5762;43.256;26.960;2023-07-31T04:13:23;99005.89;;;18.59;100.00
11413;BME280;5762;43.256;26.960;2023-07-31T04:15:52;99021.73;;;18.69;100.00
11413;BME280;5762;43.256;26.960;2023-07-31T04:18:21;99024.50;;;18.86;100.00
11413;BME280;5762;43.256;26.960;2023-07-31T04:20:50;99033.36;;;19.02;100.00
11413;BME280;5762;43.256;26.960;2023-07-31T04:23:19;99040.05;;;19.22;100.00
11413;BME280;5762;43.256;26.960;2023-07-31T04:25:48;99031.80;;;19.35;100.00
11413;BME280;5762;43.256;26.960;2023-07-31T04:28:17;99024.41;;;19.56;100.00
11413;BME280;5762;43.256;26.960;2023-07-31T04:30:46;99027.32;;;19.70;100.00
11413;BME280;5762;43.256;26.960;2023-07-31T04:33:15;99021.75;;;19.83;100.00
11413;BME280;5762;43.256;26.960;2023-07-31T04:35:49;99025.60;;;19.95;100.00
11413;BME280;5762;43.256;26.960;2023-07-31T04:38:19;99022.86;;;20.19;100.00
11413;BME280;5762;43.256;26.960;2023-07-31T04:40:48;99023.95;;;20.31;100.00
11413;BME280;5762;43.256;26.960;2023-07-31T04:43:17;99009.72;;;20.39;100.00
11413;BME280;5762;43.256;26.960;2023-07-31T04:45:46;99011.41;;;20.58;100.00
11413;BME280;5762;43.256;26.960;2023-07-31T04:48:15;99009.55;;;20.72;100.00
11413;BME280;5762;43.256;26.960;2023-07-31T04:50:44;99014.14;;;20.89;100.00
11413;BME280;5762;43.256;26.960;2023-07-31T04:53:13;99014.84;;;21.06;100.00
11413;BME280;5762;43.256;26.960;2023-07-31T04:55:41;99005.90;;;21.27;100.00
11413;BME280;5762;43.256;26.960;2023-07-31T04:58:10;99002.83;;;21.46;100.00
11413;BME280;5762;43.256;26.960;2023-07-31T05:00:39;99007.57;;;21.60;100.00
11413;BME280;5762;43.256;26.960;2023-07-31T05:03:08;99013.10;;;21.67;100.00
11413;BME280;5762;43.256;26.960;2023-07-31T05:05:36;99011.15;;;21.85;100.00
11413;BME280;5762;43.256;26.960;2023-07-31T05:08:05;99018.27;;;22.00;100.00
11413;BME280;5762;43.256;26.960;2023-07-31T05:10:34;99007.30;;;22.15;100.00
11413;BME280;5762;43.256;26.960;2023-07-31T05:13:02;99019.09;;;22.36;100.00
11413;BME280;5762;43.256;26.960;2023-07-31T05:15:30;99013.38;;;22.39;100.00
11413;BME280;5762;43.256;26.960;2023-07-31T05:17:59;99032.48;;;22.42;100.00
11413;BME280;5762;43.256;26.960;2023-07-31T05:20:28;99026.19;;;22.41;100.00
11413;BME280;5762;43.256;26.960;2023-07-31T05:22:57;99020.24;;;22.60;100.00
11413;BME280;5762;43.256;26.960;2023-07-31T05:25:26;99000.92;;;22.74;100.00
11413;BME280;5762;43.256;26.960;2023-07-31T05:27:54;98992.66;;;22.85;100.00
11413;BME280;5762;43.256;26.960;2023-07-31T05:30:23;98991.81;;;22.95;100.00
11413;BME280;5762;43.256;26.960;2023-07-31T05:32:53;98976.78;;;23.11;100.00
11413;BME280;5762;43.256;26.960;2023-07-31T05:35:21;98976.81;;;23.00;100.00
11413;BME280;5762;43.256;26.960;2023-07-31T05:37:51;98970.13;;;22.94;100.00
11413;BME280;5762;43.256;26.960;2023-07-31T05:40:20;98969.20;;;22.85;100.00
11413;BME280;5762;43.256;26.960;2023-07-31T05:42:48;98971.17;;;22.85;100.00
11413;BME280;5762;43.256;26.960;2023-07-31T05:45:17;98972.55;;;22.85;100.00
11413;BME280;5762;43.256;26.960;2023-07-31T05:47:46;98969.80;;;22.81;100.00
11413;BME280;5762;43.256;26.960;2023-07-31T05:50:14;98969.78;;;22.74;100.00
11413;BME280;5762;43.256;26.960;2023-07-31T05:52:43;98974.73;;;22.82;100.00
11413;BME280;5762;43.256;26.960;2023-07-31T05:55:12;98967.38;;;22.90;100.00
11413;BME280;5762;43.256;26.960;2023-07-31T05:57:40;98968.16;;;22.94;100.00
11413;BME280;5762;43.256;26.960;2023-07-31T06:00:08;98970.13;;;22.97;100.00
11413;BME280;5762;43.256;26.960;2023-07-31T06:02:38;98976.63;;;22.95;100.00
11413;BME280;5762;43.256;26.960;2023-07-31T06:05:06;98969.36;;;22.90;100.00
11413;BME280;5762;43.256;26.960;2023-07-31T06:07:34;98981.04;;;22.79;100.00
11413;BME280;5762;43.256;26.960;2023-07-31T06:10:03;98987.91;;;22.75;100.00
11413;BME280;5762;43.256;26.960;2023-07-31T06:12:32;98984.58;;;22.65;100.00
11413;BME280;5762;43.256;26.960;2023-07-31T06:15:02;98973.40;;;22.46;100.00
11413;BME280;5762;43.256;26.960;2023-07-31T06:17:30;98990.34;;;22.52;100.00
11413;BME280;5762;43.256;26.960;2023-07-31T06:19:59;98992.08;;;22.57;100.00
11413;BME280;5762;43.256;26.960;2023-07-31T06:22:28;98999.39;;;22.52;100.00
11413;BME280;5762;43.256;26.960;2023-07-31T06:24:57;99000.73;;;22.63;100.00
11413;BME280;5762;43.256;26.960;2023-07-31T06:27:26;99002.11;;;22.66;100.00
11413;BME280;5762;43.256;26.960;2023-07-31T06:29:54;98993.25;;;22.63;100.00
11413;BME280;5762;43.256;26.960;2023-07-31T06:32:23;99018.27;;;22.71;100.00
11413;BME280;5762;43.256;26.960;2023-07-31T06:34:52;99014.73;;;22.82;100.00
11413;BME280;5762;43.256;26.960;2023-07-31T06:37:21;99021.62;;;22.67;100.00
11413;BME280;5762;43.256;26.960;2023-07-31T06:39:49;99028.31;;;22.73;100.00
11413;BME280;5762;43.256;26.960;2023-07-31T06:42:18;99027.34;;;22.54;100.00
11413;BME280;5762;43.256;26.960;2023-07-31T06:44:47;99034.27;;;22.44;100.00
11413;BME280;5762;43.256;26.960;2023-07-31T06:47:15;99041.94;;;22.37;100.00
11413;BME280;5762;43.256;26.960;2023-07-31T06:49:43;99045.09;;;22.32;100.00
11413;BME280;5762;43.256;26.960;2023-07-31T06:52:12;99045.08;;;22.25;100.00
11413;BME280;5762;43.256;26.960;2023-07-31T06:54:40;99058.08;;;22.28;100.00
11413;BME280;5762;43.256;26.960;2023-07-31T06:57:09;99060.05;;;22.27;100.00
11413;BME280;5762;43.256;26.960;2023-07-31T06:59:38;99067.54;;;22.34;100.00
11413;BME280;5762;43.256;26.960;2023-07-31T07:02:07;99069.91;;;22.39;100.00
11413;BME280;5762;43.256;26.960;2023-07-31T07:04:36;99068.92;;;22.45;100.00
11413;BME280;5762;43.256;26.960;2023-07-31T07:07:05;99068.11;;;22.55;100.00
11413;BME280;5762;43.256;26.960;2023-07-31T07:09:33;99064.37;;;22.67;100.00
11413;BME280;5762;43.256;26.960;2023-07-31T07:12:02;99070.48;;;22.70;100.00
11413;BME280;5762;43.256;26.960;2023-07-31T07:14:31;99075.60;;;22.76;100.00
11413;BME280;5762;43.256;26.960;2023-07-31T07:16:59;99078.59;;;22.80;100.00
11413;BME280;5762;43.256;26.960;2023-07-31T07:19:28;99082.89;;;22.70;100.00
11413;BME280;5762;43.256;26.960;2023-07-31T07:21:57;99082.91;;;22.49;100.00
11413;BME280;5762;43.256;26.960;2023-07-31T07:24:25;99088.41;;;22.60;100.00
11413;BME280;5762;43.256;26.960;2023-07-31T07:26:54;99093.53;;;22.68;100.00
11413;BME280;5762;43.256;26.960;2023-07-31T07:29:23;99102.59;;;22.65;100.00
11413;BME280;5762;43.256;26.960;2023-07-31T07:31:52;99110.87;;;22.62;100.00
11413;BME280;5762;43.256;26.960;2023-07-31T07:34:25;99114.02;;;22.53;100.00
11413;BME280;5762;43.256;26.960;2023-07-31T07:36:50;99118.37;;;22.47;100.00
11413;BME280;5762;43.256;26.960;2023-07-31T07:39:19;99125.05;;;22.57;100.00
11413;BME280;5762;43.256;26.960;2023-07-31T07:41:47;99130.57;;;22.60;100.00
11413;BME280;5762;43.256;26.960;2023-07-31T07:44:16;99137.66;;;22.54;100.00
11413;BME280;5762;43.256;26.960;2023-07-31T07:46:45;99142.78;;;22.59;100.00
11413;BME280;5762;43.256;26.960;2023-07-31T07:49:13;99150.87;;;22.62;100.00
11413;BME280;5762;43.256;26.960;2023-07-31T07:51:42;99152.05;;;22.64;100.00
11413;BME280;5762;43.256;26.960;2023-07-31T07:54:10;99164.08;;;22.73;100.00
11413;BME280;5762;43.256;26.960;2023-07-31T07:56:39;99161.91;;;22.72;100.00
11413;BME280;5762;43.256;26.960;2023-07-31T07:59:08;99162.48;;;22.58;100.00
11413;BME280;5762;43.256;26.960;2023-07-31T08:01:37;99167.99;;;22.54;100.00
11413;BME280;5762;43.256;26.960;2023-07-31T08:04:05;99161.12;;;22.51;100.00
11413;BME280;5762;43.256;26.960;2023-07-31T08:06:34;99169.97;;;22.43;100.00
11413;BME280;5762;43.256;26.960;2023-07-31T08:09:03;99178.02;;;22.35;100.00
11413;BME280;5762;43.256;26.960;2023-07-31T08:11:32;99183.34;;;22.37;100.00
11413;BME280;5762;43.256;26.960;2023-07-31T08:14:01;99198.89;;;22.36;100.00
11413;BME280;5762;43.256;26.960;2023-07-31T08:16:30;99210.14;;;22.40;100.00
11413;BME280;5762;43.256;26.960;2023-07-31T08:18:59;99206.98;;;22.38;100.00
11413;BME280;5762;43.256;26.960;2023-07-31T08:21:27;99209.91;;;22.29;100.00
11413;BME280;5762;43.256;26.960;2023-07-31T08:23:56;99211.25;;;22.22;100.00
11413;BME280;5762;43.256;26.960;2023-07-31T08:26:24;99223.47;;;22.17;100.00
11413;BME280;5762;43.256;26.960;2023-07-31T08:28:53;99230.52;;;22.08;100.00
11413;BME280;5762;43.256;26.960;2023-07-31T08:31:22;99235.42;;;22.04;100.00
11413;BME280;5762;43.256;26.960;2023-07-31T08:33:51;99237.11;;;21.96;100.00
11413;BME280;5762;43.256;26.960;2023-07-31T08:36:20;99252.09;;;21.98;100.00
11413;BME280;5762;43.256;26.960;2023-07-31T08:38:49;99256.79;;;21.94;100.00
11413;BME280;5762;43.256;26.960;2023-07-31T08:41:17;99264.81;;;21.86;100.00
11413;BME280;5762;43.256;26.960;2023-07-31T08:43:46;99266.78;;;21.82;100.00
11413;BME280;5762;43.256;26.960;2023-07-31T08:46:15;99275.63;;;21.85;100.00
11413;BME280;5762;43.256;26.960;2023-07-31T08:48:44;99273.27;;;21.80;100.00
11413;BME280;5762;43.256;26.960;2023-07-31T08:51:18;99289.25;;;21.60;100.00
11413;BME280;5762;43.256;26.960;2023-07-31T08:53:43;99296.31;;;21.58;100.00
11413;BME280;5762;43.256;26.960;2023-07-31T08:56:11;99308.85;;;21.52;100.00
11413;BME280;5762;43.256;26.960;2023-07-31T08:58:41;99317.38;;;21.60;100.00
11413;BME280;5762;43.256;26.960;2023-07-31T09:01:10;99323.12;;;21.64;100.00
11413;BME280;5762;43.256;26.960;2023-07-31T09:03:40;99327.69;;;21.70;100.00
11413;BME280;5762;43.256;26.960;2023-07-31T09:06:09;99328.89;;;21.72;100.00
11413;BME280;5762;43.256;26.960;2023-07-31T09:08:38;99332.00;;;21.67;100.00
11413;BME280;5762;43.256;26.960;2023-07-31T09:11:08;99334.90;;;21.61;100.00
11413;BME280;5762;43.256;26.960;2023-07-31T09:13:37;99338.77;;;21.53;100.00
11413;BME280;5762;43.256;26.960;2023-07-31T09:16:07;99334.02;;;21.47;100.00
11413;BME280;5762;43.256;26.960;2023-07-31T09:21:18;99334.12;;;21.37;100.00
11413;BME280;5762;43.256;26.960;2023-07-31T09:23:47;99334.36;;;21.42;100.00
11413;BME280;5762;43.256;26.960;2023-07-31T09:26:28;99340.24;;;21.40;100.00
11413;BME280;5762;43.256;26.960;2023-07-31T09:28:57;99347.34;;;21.41;100.00
11413;BME280;5762;43.256;26.960;2023-07-31T09:31:33;99346.75;;;21.42;100.00
11413;BME280;5762;43.256;26.960;2023-07-31T09:34:01;99341.94;;;21.31;100.00
11413;BME280;5762;43.256;26.960;2023-07-31T09:36:30;99344.41;;;21.23;100.00
11413;BME280;5762;43.256;26.960;2023-07-31T09:39:02;99346.30;;;21.19;100.00
11413;BME280;5762;43.256;26.960;2023-07-31T09:41:31;99350.08;;;21.21;100.00
11413;BME280;5762;43.256;26.960;2023-07-31T09:43:59;99347.06;;;21.16;100.00
11413;BME280;5762;43.256;26.960;2023-07-31T09:46:28;99345.26;;;21.11;100.00
11413;BME280;5762;43.256;26.960;2023-07-31T09:51:37;99357.47;;;21.13;100.00
11413;BME280;5762;43.256;26.960;2023-07-31T09:54:09;99357.44;;;21.10;100.00
11413;BME280;5762;43.256;26.960;2023-07-31T09:56:46;99349.80;;;21.13;100.00
11413;BME280;5762;43.256;26.960;2023-07-31T09:59:11;99348.16;;;21.25;100.00
11413;BME280;5762;43.256;26.960;2023-07-31T10:01:41;99352.91;;;21.28;100.00
11413;BME280;5762;43.256;26.960;2023-07-31T10:04:10;99356.31;;;21.34;100.00
11413;BME280;5762;43.256;26.960;2023-07-31T10:06:40;99359.06;;;21.34;100.00
11413;BME280;5762;43.256;26.960;2023-07-31T10:09:09;99355.80;;;21.42;100.00
11413;BME280;5762;43.256;26.960;2023-07-31T10:11:38;99359.38;;;21.46;100.00
11413;BME280;5762;43.256;26.960;2023-07-31T10:14:07;99352.94;;;21.55;100.00
11413;BME280;5762;43.256;26.960;2023-07-31T10:16:37;99355.34;;;21.60;100.00
11413;BME280;5762;43.256;26.960;2023-07-31T10:19:06;99355.00;;;21.65;100.00
11413;BME280;5762;43.256;26.960;2023-07-31T10:21:36;99346.12;;;21.62;100.00
11413;BME280;5762;43.256;26.960;2023-07-31T10:24:06;99347.32;;;21.65;100.00
11413;BME280;5762;43.256;26.960;2023-07-31T10:26:35;99345.56;;;21.66;100.00
11413;BME280;5762;43.256;26.960;2023-07-31T10:29:06;99340.38;;;21.58;100.00
11413;BME280;5762;43.256;26.960;2023-07-31T10:31:36;99347.88;;;21.61;100.00
11413;BME280;5762;43.256;26.960;2023-07-31T10:34:05;99332.44;;;21.73;100.00
11413;BME280;5762;43.256;26.960;2023-07-31T10:36:34;99338.59;;;21.80;100.00
11413;BME280;5762;43.256;26.960;2023-07-31T10:39:03;99337.26;;;21.90;100.00
11413;BME280;5762;43.256;26.960;2023-07-31T10:41:32;99340.55;;;22.06;100.00
11413;BME280;5762;43.256;26.960;2023-07-31T10:44:01;99337.06;;;22.20;100.00
11413;BME280;5762;43.256;26.960;2023-07-31T10:46:30;99332.05;;;22.40;100.00
11413;BME280;5762;43.256;26.960;2023-07-31T10:49:00;99324.99;;;22.46;100.00
11413;BME280;5762;43.256;26.960;2023-07-31T10:51:35;99317.50;;;22.43;100.00
11413;BME280;5762;43.256;26.960;2023-07-31T10:54:13;99301.38;;;22.52;100.00
11413;BME280;5762;43.256;26.960;2023-07-31T10:56:45;99279.34;;;22.70;100.00
11413;BME280;5762;43.256;26.960;2023-07-31T10:59:14;99266.41;;;22.85;100.00
11413;BME280;5762;43.256;26.960;2023-07-31T11:01:56;99262.08;;;23.26;100.00
11413;BME280;5762;43.256;26.960;2023-07-31T11:04:25;99247.67;;;23.30;100.00
11413;BME280;5762;43.256;26.960;2023-07-31T11:06:59;99225.76;;;23.60;100.00
11413;BME280;5762;43.256;26.960;2023-07-31T11:09:30;99212.19;;;24.08;100.00
11413;BME280;5762;43.256;26.960;2023-07-31T11:11:59;99200.56;;;24.45;100.00
11413;BME280;5762;43.256;26.960;2023-07-31T11:14:28;99164.34;;;24.55;100.00
11413;BME280;5762;43.256;26.960;2023-07-31T11:16:57;99153.70;;;24.76;100.00
11413;BME280;5762;43.256;26.960;2023-07-31T11:19:25;99135.11;;;24.76;100.00
11413;BME280;5762;43.256;26.960;2023-07-31T11:21:54;99126.08;;;24.68;100.00
11413;BME280;5762;43.256;26.960;2023-07-31T11:24:23;99127.16;;;24.59;100.00
11413;BME280;5762;43.256;26.960;2023-07-31T11:26:52;99124.47;;;24.49;100.00
11413;BME280;5762;43.256;26.960;2023-07-31T11:29:21;99127.84;;;24.45;100.00
11413;BME280;5762;43.256;26.960;2023-07-31T11:31:51;99133.43;;;24.37;100.00
11413;BME280;5762;43.256;26.960;2023-07-31T11:34:20;99137.59;;;24.34;100.00
11413;BME280;5762;43.256;26.960;2023-07-31T11:36:53;99128.77;;;24.24;100.00
11413;BME280;5762;43.256;26.960;2023-07-31T11:39:21;99126.58;;;24.27;100.00
11413;BME280;5762;43.256;26.960;2023-07-31T11:41:50;99123.62;;;24.26;100.00
11413;BME280;5762;43.256;26.960;2023-07-31T11:44:19;99122.26;;;24.22;100.00
11413;BME280;5762;43.256;26.960;2023-07-31T11:46:48;99116.92;;;24.23;100.00
11413;BME280;5762;43.256;26.960;2023-07-31T11:49:17;99121.02;;;24.30;100.00
11413;BME280;5762;43.256;26.960;2023-07-31T11:51:46;99115.41;;;24.45;100.00
11413;BME280;5762;43.256;26.960;2023-07-31T11:54:15;99116.03;;;24.63;100.00
11413;BME280;5762;43.256;26.960;2023-07-31T11:56:43;99106.23;;;24.77;100.00
11413;BME280;5762;43.256;26.960;2023-07-31T11:59:13;99101.52;;;24.96;100.00
11413;BME280;5762;43.256;26.960;2023-07-31T12:01:41;99092.16;;;25.24;100.00
11413;BME280;5762;43.256;26.960;2023-07-31T12:04:11;99086.42;;;25.57;100.00
11413;BME280;5762;43.256;26.960;2023-07-31T12:06:41;99076.92;;;25.89;100.00
11413;BME280;5762;43.256;26.960;2023-07-31T12:09:10;99070.03;;;26.12;100.00
11413;BME280;5762;43.256;26.960;2023-07-31T12:11:44;99065.65;;;26.53;100.00
11413;BME280;5762;43.256;26.960;2023-07-31T12:14:25;99060.26;;;26.78;100.00
11413;BME280;5762;43.256;26.960;2023-07-31T12:16:55;99058.84;;;27.13;100.00
11413;BME280;5762;43.256;26.960;2023-07-31T12:19:24;99091.77;;;26.79;100.00
11413;BME280;5762;43.256;26.960;2023-07-31T12:21:53;99089.83;;;26.88;100.00
11413;BME280;5762;43.256;26.960;2023-07-31T12:24:21;99079.37;;;27.07;100.00
11413;BME280;5762;43.256;26.960;2023-07-31T12:26:50;99045.05;;;26.74;100.00
11413;BME280;5762;43.256;26.960;2023-07-31T12:29:19;99015.89;;;27.37;100.00
11413;BME280;5762;43.256;26.960;2023-07-31T12:31:48;99002.22;;;27.98;100.00
11413;BME280;5762;43.256;26.960;2023-07-31T12:34:17;99006.48;;;27.95;100.00
11413;BME280;5762;43.256;26.960;2023-07-31T12:36:47;98997.55;;;28.36;100.00
11413;BME280;5762;43.256;26.960;2023-07-31T12:39:17;98991.55;;;28.38;100.00
11413;BME280;5762;43.256;26.960;2023-07-31T12:41:46;98989.68;;;28.55;100.00
11413;BME280;5762;43.256;26.960;2023-07-31T12:44:15;98989.23;;;28.65;100.00
11413;BME280;5762;43.256;26.960;2023-07-31T12:46:43;98980.07;;;28.27;100.00
11413;BME280;5762;43.256;26.960;2023-07-31T12:49:12;98976.02;;;28.98;100.00
11413;BME280;5762;43.256;26.960;2023-07-31T12:51:41;98978.37;;;29.41;100.00
11413;BME280;5762;43.256;26.960;2023-07-31T12:54:10;98971.97;;;29.74;100.00
11413;BME280;5762;43.256;26.960;2023-07-31T12:56:39;98960.25;;;29.66;100.00
11413;BME280;5762;43.256;26.960;2023-07-31T12:59:07;98952.03;;;29.21;100.00
11413;BME280;5762;43.256;26.960;2023-07-31T13:01:35;98955.81;;;28.65;100.00
11413;BME280;5762;43.256;26.960;2023-07-31T13:04:04;98952.07;;;28.26;100.00
11413;BME280;5762;43.256;26.960;2023-07-31T13:06:33;98955.78;;;28.12;100.00
11413;BME280;5762;43.256;26.960;2023-07-31T13:09:04;98940.67;;;27.96;100.00
11413;BME280;5762;43.256;26.960;2023-07-31T13:11:33;98917.34;;;27.58;100.00
11413;BME280;5762;43.256;26.960;2023-07-31T13:14:02;98921.46;;;27.25;100.00